Pagrindinis puslapis
METAR-TAF:

METAR-TAF

Oro uostai :

Kbely

Praha, Čekija

platuma: 50-07-17N, ilguma: 14-32-37E, Aukštis: 286 m

Dabartinis oras

Ataskaita buvo paskelbta 1 valandą ir 6 minutes, ne 23:00 UTC
Vėjas 2 kt iš Šiaurės Vakarų
Temperatūra 1°C
Drėgmė 69%
Slėgis 1021 hPa
Matomumas 10 km arba daugiau
nėra debesų žemiau 1500 m ir nėra kamuolinių lietaus debesų

METAR: LKKB 212300Z 32002KT CAVOK 01/M04 Q1021

Laikas: 02:06 (00:06 UTC)

Prognozė

Ataskaita buvo paskelbta 7 valandos ir 6 minutes, ne 17:00 UTC
Prognozė galioja nuo 21 metu 18 UTC su 22 metu 18 UTC
Vėjas 6 kt iš Šiaurės/Šiaurės Vakarų
Matomumas 10 km arba daugiau
nėra debesų žemiau 1500 m ir nėra kamuolinių lietaus debesų
Tapsmas
nuo 22 metu 08 UTC su 22 metu 10 UTC
Vėjas 8 kt iš Šiaurės
Išsisklaidę debesys ne aukštis 3800 ft
Tapsmas
nuo 22 metu 15 UTC su 22 metu 17 UTC
Matomumas 10 km arba daugiau
nėra debesų žemiau 1500 m ir nėra kamuolinių lietaus debesų

TAF: LKKB 211700Z 2118/2218 33006KT CAVOK BECMG 2208/2210 01008KT SCT038 BECMG 2215/2217 CAVOK

Orai ataskaitas ir orų prognozės (METAR, TAF).

turimą stotys yra geltonos ir raudonos taškus žemėlapyje.

Perkelti pele per norėdami pamatyti stoties vardą.

Tada spustelėkite, norėdami matyti oro stebėjimo ir prognozės.

Norėdami pakeisti žemėlapį: spustelėkite ant žalios mygtukų su juodo kryžiaus žemyn,; žalią mygtuką su brūkšneliu, jei norite nutolinti; arba žalių rodyklių gretimoms žemėlapius.


METAR-TAF: